sensor_id;sensor_type;location;lat;lon;timestamp;pressure;altitude;pressure_sealevel;temperature;humidity
929;BME280;451;47.988;7.842;2023-03-01T00:07:28;99108.13;;;-0.59;100.00
929;BME280;451;47.988;7.842;2023-03-01T00:16:35;99113.94;;;-0.55;100.00
929;BME280;451;47.988;7.842;2023-03-01T00:25:41;99092.56;;;-0.73;100.00
929;BME280;451;47.988;7.842;2023-03-01T00:34:45;99085.16;;;-0.79;100.00
929;BME280;451;47.988;7.842;2023-03-01T00:43:57;99089.06;;;-0.72;100.00
929;BME280;451;47.988;7.842;2023-03-01T00:53:01;99086.31;;;-0.69;100.00
929;BME280;451;47.988;7.842;2023-03-01T01:02:04;99087.88;;;-0.51;100.00
929;BME280;451;47.988;7.842;2023-03-01T01:11:12;99085.72;;;-0.74;100.00
929;BME280;451;47.988;7.842;2023-03-01T01:20:15;99081.97;;;-1.00;100.00
929;BME280;451;47.988;7.842;2023-03-01T01:29:20;99073.09;;;-0.63;100.00
929;BME280;451;47.988;7.842;2023-03-01T01:38:24;98996.31;;;-1.20;100.00
929;BME280;451;47.988;7.842;2023-03-01T01:47:28;99041.63;;;-1.16;100.00
929;BME280;451;47.988;7.842;2023-03-01T01:56:31;99048.69;;;-1.04;100.00
929;BME280;451;47.988;7.842;2023-03-01T02:05:41;99027.97;;;-0.87;100.00
929;BME280;451;47.988;7.842;2023-03-01T02:14:46;99024.75;;;-1.06;100.00
929;BME280;451;47.988;7.842;2023-03-01T02:23:50;98999.78;;;-1.37;100.00
929;BME280;451;47.988;7.842;2023-03-01T02:32:56;99031.38;;;-1.18;100.00
929;BME280;451;47.988;7.842;2023-03-01T02:42:04;99005.06;;;-0.77;100.00
929;BME280;451;47.988;7.842;2023-03-01T02:51:17;99001.44;;;-0.89;100.00
929;BME280;451;47.988;7.842;2023-03-01T03:00:26;98986.72;;;-1.03;100.00
929;BME280;451;47.988;7.842;2023-03-01T03:09:33;98993.66;;;-1.19;100.00
929;BME280;451;47.988;7.842;2023-03-01T03:18:36;98959.59;;;-0.94;100.00
929;BME280;451;47.988;7.842;2023-03-01T03:27:41;98745.94;;;-2.86;100.00
929;BME280;451;47.988;7.842;2023-03-01T03:36:45;98976.66;;;-1.23;100.00
929;BME280;451;47.988;7.842;2023-03-01T03:45:52;98967.53;;;-0.83;100.00
929;BME280;451;47.988;7.842;2023-03-01T03:54:58;98967.41;;;-0.22;100.00
929;BME280;451;47.988;7.842;2023-03-01T04:04:03;98964.16;;;-0.39;100.00
929;BME280;451;47.988;7.842;2023-03-01T04:13:09;98949.78;;;-0.15;99.60
929;BME280;451;47.988;7.842;2023-03-01T04:22:14;98950.16;;;0.21;97.78
929;BME280;451;47.988;7.842;2023-03-01T04:31:20;98933.09;;;0.19;96.93
929;BME280;451;47.988;7.842;2023-03-01T04:40:26;98934.09;;;-0.12;97.37
929;BME280;451;47.988;7.842;2023-03-01T04:49:29;98915.34;;;0.27;94.87
929;BME280;451;47.988;7.842;2023-03-01T04:58:34;98935.69;;;-0.10;95.60
929;BME280;451;47.988;7.842;2023-03-01T05:07:36;98932.91;;;0.63;93.29
929;BME280;451;47.988;7.842;2023-03-01T05:16:41;98928.56;;;0.08;93.76
929;BME280;451;47.988;7.842;2023-03-01T05:25:44;98911.53;;;0.32;92.91
929;BME280;451;47.988;7.842;2023-03-01T05:34:48;98915.72;;;0.21;91.10
929;BME280;451;47.988;7.842;2023-03-01T05:43:54;98905.97;;;-0.03;94.43
929;BME280;451;47.988;7.842;2023-03-01T05:53:00;98906.88;;;0.52;93.09
929;BME280;451;47.988;7.842;2023-03-01T06:02:04;98912.72;;;-0.14;94.04
929;BME280;451;47.988;7.842;2023-03-01T06:11:09;98894.09;;;-0.19;93.17
929;BME280;451;47.988;7.842;2023-03-01T06:20:13;98873.78;;;-0.25;93.54
929;BME280;451;47.988;7.842;2023-03-01T06:29:18;98909.38;;;0.12;93.97
929;BME280;451;47.988;7.842;2023-03-01T06:38:21;98918.25;;;-0.20;96.15
929;BME280;451;47.988;7.842;2023-03-01T06:47:26;98915.09;;;0.03;97.96
929;BME280;451;47.988;7.842;2023-03-01T06:56:30;98890.44;;;0.53;95.14
929;BME280;451;47.988;7.842;2023-03-01T07:05:34;98912.13;;;0.23;94.91
929;BME280;451;47.988;7.842;2023-03-01T07:14:37;98904.34;;;0.91;93.53
929;BME280;451;47.988;7.842;2023-03-01T07:23:47;98893.59;;;0.97;92.03
929;BME280;451;47.988;7.842;2023-03-01T07:32:50;98898.94;;;1.21;89.74
929;BME280;451;47.988;7.842;2023-03-01T07:41:54;98876.81;;;0.90;92.18
929;BME280;451;47.988;7.842;2023-03-01T07:50:58;98894.06;;;1.16;90.72
929;BME280;451;47.988;7.842;2023-03-01T08:00:04;98891.28;;;0.80;89.80
929;BME280;451;47.988;7.842;2023-03-01T08:09:13;98890.19;;;1.49;89.46
929;BME280;451;47.988;7.842;2023-03-01T08:18:19;98885.19;;;1.71;85.03
929;BME280;451;47.988;7.842;2023-03-01T08:27:22;98899.44;;;2.15;85.67
929;BME280;451;47.988;7.842;2023-03-01T08:36:28;98863.81;;;2.06;84.40
929;BME280;451;47.988;7.842;2023-03-01T08:45:31;98875.88;;;2.54;84.61
929;BME280;451;47.988;7.842;2023-03-01T08:54:36;98863.50;;;2.81;81.25
929;BME280;451;47.988;7.842;2023-03-01T09:03:39;98855.53;;;2.61;80.58
929;BME280;451;47.988;7.842;2023-03-01T09:12:45;98838.56;;;3.71;76.85
929;BME280;451;47.988;7.842;2023-03-01T09:21:48;98781.25;;;3.61;75.40
929;BME280;451;47.988;7.842;2023-03-01T09:30:58;98811.38;;;4.40;71.53
929;BME280;451;47.988;7.842;2023-03-01T09:40:02;98827.09;;;3.85;75.22
929;BME280;451;47.988;7.842;2023-03-01T09:49:12;98828.41;;;4.44;71.13
929;BME280;451;47.988;7.842;2023-03-01T09:58:38;98840.28;;;4.26;71.95
929;BME280;451;47.988;7.842;2023-03-01T10:07:54;98799.16;;;4.52;71.51
929;BME280;451;47.988;7.842;2023-03-01T10:17:02;98812.84;;;4.22;73.14
929;BME280;451;47.988;7.842;2023-03-01T10:26:29;98806.19;;;4.40;72.01
929;BME280;451;47.988;7.842;2023-03-01T10:35:35;98801.88;;;5.24;70.47
929;BME280;451;47.988;7.842;2023-03-01T10:44:45;98811.47;;;5.75;66.88
929;BME280;451;47.988;7.842;2023-03-01T10:53:49;98793.63;;;4.98;69.14
929;BME280;451;47.988;7.842;2023-03-01T11:03:11;98770.31;;;4.97;70.51
929;BME280;451;47.988;7.842;2023-03-01T11:12:15;98757.66;;;4.71;72.56
929;BME280;451;47.988;7.842;2023-03-01T11:21:20;98726.19;;;6.44;66.27
929;BME280;451;47.988;7.842;2023-03-01T11:30:27;98728.06;;;6.90;63.79
929;BME280;451;47.988;7.842;2023-03-01T11:39:37;98716.75;;;7.09;62.56
929;BME280;451;47.988;7.842;2023-03-01T11:48:48;98706.06;;;7.66;59.65
929;BME280;451;47.988;7.842;2023-03-01T11:58:14;98698.56;;;7.17;62.73
929;BME280;451;47.988;7.842;2023-03-01T12:07:26;98675.19;;;6.59;63.31
929;BME280;451;47.988;7.842;2023-03-01T12:16:44;98668.28;;;7.14;62.31
929;BME280;451;47.988;7.842;2023-03-01T12:25:55;98660.63;;;7.67;60.62
929;BME280;451;47.988;7.842;2023-03-01T12:44:52;98632.06;;;8.71;54.84
929;BME280;451;47.988;7.842;2023-03-01T12:54:10;98622.28;;;9.57;52.31
929;BME280;451;47.988;7.842;2023-03-01T13:03:23;98589.25;;;10.04;50.85
929;BME280;451;47.988;7.842;2023-03-01T13:13:01;98586.28;;;10.16;50.99
929;BME280;451;47.988;7.842;2023-03-01T13:22:26;98593.09;;;8.68;53.50
929;BME280;451;47.988;7.842;2023-03-01T13:32:00;98587.50;;;9.47;51.13
929;BME280;451;47.988;7.842;2023-03-01T13:41:05;98578.97;;;9.37;53.20
929;BME280;451;47.988;7.842;2023-03-01T13:50:19;98565.84;;;9.45;51.40
929;BME280;451;47.988;7.842;2023-03-01T13:59:23;98561.03;;;9.16;52.25
929;BME280;451;47.988;7.842;2023-03-01T14:08:30;98583.25;;;9.62;51.73
929;BME280;451;47.988;7.842;2023-03-01T14:17:58;98559.31;;;9.49;51.84
929;BME280;451;47.988;7.842;2023-03-01T14:27:04;98526.03;;;9.90;52.05
929;BME280;451;47.988;7.842;2023-03-01T14:36:09;98545.22;;;9.82;51.47
929;BME280;451;47.988;7.842;2023-03-01T14:45:14;98564.72;;;9.47;51.24
929;BME280;451;47.988;7.842;2023-03-01T14:54:22;98551.31;;;10.07;50.97
929;BME280;451;47.988;7.842;2023-03-01T15:03:32;98553.50;;;8.87;52.28
929;BME280;451;47.988;7.842;2023-03-01T15:12:38;98553.97;;;9.16;52.03
929;BME280;451;47.988;7.842;2023-03-01T15:21:49;98550.25;;;9.35;52.71
929;BME280;451;47.988;7.842;2023-03-01T15:30:55;98559.56;;;9.21;53.28
929;BME280;451;47.988;7.842;2023-03-01T15:40:01;98553.13;;;7.79;57.14
929;BME280;451;47.988;7.842;2023-03-01T15:49:24;98557.59;;;7.68;58.38
929;BME280;451;47.988;7.842;2023-03-01T15:58:30;98560.88;;;7.35;59.63
929;BME280;451;47.988;7.842;2023-03-01T16:07:33;98526.19;;;7.33;60.22
929;BME280;451;47.988;7.842;2023-03-01T16:16:43;98559.84;;;7.18;60.12
929;BME280;451;47.988;7.842;2023-03-01T16:25:46;98532.19;;;6.98;61.15
929;BME280;451;47.988;7.842;2023-03-01T16:34:50;98562.91;;;7.41;59.89
929;BME280;451;47.988;7.842;2023-03-01T16:43:53;98568.66;;;7.80;59.27
929;BME280;451;47.988;7.842;2023-03-01T16:52:58;98569.91;;;7.94;59.87
929;BME280;451;47.988;7.842;2023-03-01T17:02:01;98575.75;;;7.70;59.80
929;BME280;451;47.988;7.842;2023-03-01T17:11:08;98577.91;;;7.75;60.13
929;BME280;451;47.988;7.842;2023-03-01T17:20:12;98585.84;;;7.83;59.55
929;BME280;451;47.988;7.842;2023-03-01T17:29:16;98584.19;;;7.46;59.89
929;BME280;451;47.988;7.842;2023-03-01T17:38:20;98578.81;;;6.66;64.65
929;BME280;451;47.988;7.842;2023-03-01T17:47:24;98499.56;;;6.01;65.44
929;BME280;451;47.988;7.842;2023-03-01T17:56:28;98598.41;;;7.16;62.20
929;BME280;451;47.988;7.842;2023-03-01T18:05:35;98618.94;;;6.65;64.52
929;BME280;451;47.988;7.842;2023-03-01T18:14:38;98552.53;;;6.21;65.11
929;BME280;451;47.988;7.842;2023-03-01T18:23:43;98621.25;;;6.12;68.22
929;BME280;451;47.988;7.842;2023-03-01T18:32:46;98624.66;;;6.41;67.30
929;BME280;451;47.988;7.842;2023-03-01T18:41:50;98618.22;;;6.82;66.25
929;BME280;451;47.988;7.842;2023-03-01T18:50:53;98597.56;;;6.32;67.36
929;BME280;451;47.988;7.842;2023-03-01T18:59:58;98581.28;;;5.92;69.57
929;BME280;451;47.988;7.842;2023-03-01T19:09:02;98618.19;;;6.26;69.72
929;BME280;451;47.988;7.842;2023-03-01T19:18:06;98615.16;;;5.82;71.75
929;BME280;451;47.988;7.842;2023-03-01T19:27:10;98617.66;;;6.03;70.94
929;BME280;451;47.988;7.842;2023-03-01T19:36:15;98560.22;;;5.36;72.38
929;BME280;451;47.988;7.842;2023-03-01T19:45:18;98613.72;;;5.40;74.26
929;BME280;451;47.988;7.842;2023-03-01T19:54:22;98609.63;;;5.47;73.84
929;BME280;451;47.988;7.842;2023-03-01T20:03:27;98598.66;;;5.43;73.77
929;BME280;451;47.988;7.842;2023-03-01T20:12:31;98608.88;;;5.25;73.23
929;BME280;451;47.988;7.842;2023-03-01T20:21:37;98600.69;;;5.40;74.14
929;BME280;451;47.988;7.842;2023-03-01T20:30:41;98595.06;;;5.35;74.23
929;BME280;451;47.988;7.842;2023-03-01T20:39:45;98598.53;;;5.54;73.98
929;BME280;451;47.988;7.842;2023-03-01T20:48:49;98586.00;;;5.29;73.75
929;BME280;451;47.988;7.842;2023-03-01T20:57:52;98571.63;;;5.44;73.88
929;BME280;451;47.988;7.842;2023-03-01T21:06:57;98562.00;;;5.45;73.33
929;BME280;451;47.988;7.842;2023-03-01T21:16:01;98448.47;;;4.64;74.33
929;BME280;451;47.988;7.842;2023-03-01T21:25:07;98549.13;;;5.53;73.71
929;BME280;451;47.988;7.842;2023-03-01T21:34:11;98542.13;;;5.73;72.91
929;BME280;451;47.988;7.842;2023-03-01T21:43:16;98533.03;;;5.19;75.24
929;BME280;451;47.988;7.842;2023-03-01T21:52:20;98518.91;;;5.21;76.26
929;BME280;451;47.988;7.842;2023-03-01T22:01:26;98464.47;;;5.28;73.64
929;BME280;451;47.988;7.842;2023-03-01T22:10:30;98461.44;;;5.13;74.73
929;BME280;451;47.988;7.842;2023-03-01T22:19:34;98489.16;;;5.14;75.42
929;BME280;451;47.988;7.842;2023-03-01T22:28:37;98484.66;;;5.55;75.26
929;BME280;451;47.988;7.842;2023-03-01T22:37:42;98470.50;;;5.67;74.08
929;BME280;451;47.988;7.842;2023-03-01T22:46:45;98476.94;;;5.44;74.85
929;BME280;451;47.988;7.842;2023-03-01T22:55:50;98464.84;;;4.85;76.96
929;BME280;451;47.988;7.842;2023-03-01T23:04:53;98437.81;;;4.67;77.13
929;BME280;451;47.988;7.842;2023-03-01T23:13:58;98464.72;;;4.96;77.46
929;BME280;451;47.988;7.842;2023-03-01T23:23:01;98457.88;;;5.14;77.57
929;BME280;451;47.988;7.842;2023-03-01T23:32:06;98438.81;;;4.35;79.69
929;BME280;451;47.988;7.842;2023-03-01T23:41:09;98433.69;;;4.55;79.56
929;BME280;451;47.988;7.842;2023-03-01T23:50:13;98422.38;;;4.35;82.14
929;BME280;451;47.988;7.842;2023-03-01T23:59:18;98426.47;;;4.37;82.12
